sensor_id;sensor_type;location;lat;lon;timestamp;P1;durP1;ratioP1;P2;durP2;ratioP2
57335;SDS011;43171;50.994;18.204;2024-01-07T00:07:06;11.60;;;7.90;;
57335;SDS011;43171;50.994;18.204;2024-01-07T00:16:48;11.60;;;6.90;;
57335;SDS011;43171;50.994;18.204;2024-01-07T00:26:30;17.50;;;9.00;;
57335;SDS011;43171;50.994;18.204;2024-01-07T00:36:12;11.00;;;6.70;;
57335;SDS011;43171;50.994;18.204;2024-01-07T00:45:54;11.00;;;6.60;;
57335;SDS011;43171;50.994;18.204;2024-01-07T00:55:36;13.20;;;6.90;;
57335;SDS011;43171;50.994;18.204;2024-01-07T01:05:19;10.50;;;6.80;;
57335;SDS011;43171;50.994;18.204;2024-01-07T01:15:02;10.70;;;5.50;;
57335;SDS011;43171;50.994;18.204;2024-01-07T01:24:46;11.10;;;6.20;;
57335;SDS011;43171;50.994;18.204;2024-01-07T01:34:32;7.20;;;4.00;;
57335;SDS011;43171;50.994;18.204;2024-01-07T01:51:25;12.70;;;7.40;;
57335;SDS011;43171;50.994;18.204;2024-01-07T02:01:08;8.50;;;5.20;;
57335;SDS011;43171;50.994;18.204;2024-01-07T02:10:51;12.90;;;6.00;;
57335;SDS011;43171;50.994;18.204;2024-01-07T02:20:34;5.70;;;3.70;;
57335;SDS011;43171;50.994;18.204;2024-01-07T02:30:18;9.30;;;6.50;;
57335;SDS011;43171;50.994;18.204;2024-01-07T02:40:01;7.70;;;4.70;;
57335;SDS011;43171;50.994;18.204;2024-01-07T02:49:44;10.90;;;6.20;;
57335;SDS011;43171;50.994;18.204;2024-01-07T02:59:26;4.30;;;3.80;;
57335;SDS011;43171;50.994;18.204;2024-01-07T03:09:08;21.30;;;9.70;;
57335;SDS011;43171;50.994;18.204;2024-01-07T03:18:56;14.30;;;11.90;;
57335;SDS011;43171;50.994;18.204;2024-01-07T03:28:39;19.00;;;10.00;;
57335;SDS011;43171;50.994;18.204;2024-01-07T03:38:30;16.80;;;9.90;;
57335;SDS011;43171;50.994;18.204;2024-01-07T03:40:55;20.40;;;14.70;;
57335;SDS011;43171;50.994;18.204;2024-01-07T03:50:41;16.70;;;11.40;;
57335;SDS011;43171;50.994;18.204;2024-01-07T04:00:23;16.70;;;9.80;;
57335;SDS011;43171;50.994;18.204;2024-01-07T04:10:06;19.40;;;8.60;;
57335;SDS011;43171;50.994;18.204;2024-01-07T04:19:51;16.30;;;10.50;;
57335;SDS011;43171;50.994;18.204;2024-01-07T04:29:35;13.50;;;8.90;;
57335;SDS011;43171;50.994;18.204;2024-01-07T04:46:34;19.10;;;12.00;;
57335;SDS011;43171;50.994;18.204;2024-01-07T04:56:20;18.70;;;11.20;;
57335;SDS011;43171;50.994;18.204;2024-01-07T05:06:03;10.50;;;7.40;;
57335;SDS011;43171;50.994;18.204;2024-01-07T05:15:47;17.80;;;11.40;;
57335;SDS011;43171;50.994;18.204;2024-01-07T05:25:37;10.90;;;8.20;;
57335;SDS011;43171;50.994;18.204;2024-01-07T05:35:20;12.30;;;7.10;;
57335;SDS011;43171;50.994;18.204;2024-01-07T05:45:03;15.80;;;9.00;;
57335;SDS011;43171;50.994;18.204;2024-01-07T05:54:46;14.40;;;7.50;;
57335;SDS011;43171;50.994;18.204;2024-01-07T06:04:29;13.90;;;7.30;;
57335;SDS011;43171;50.994;18.204;2024-01-07T06:14:12;16.30;;;9.00;;
57335;SDS011;43171;50.994;18.204;2024-01-07T06:23:54;15.30;;;8.00;;
57335;SDS011;43171;50.994;18.204;2024-01-07T06:33:38;11.80;;;8.20;;
57335;SDS011;43171;50.994;18.204;2024-01-07T06:43:27;15.50;;;10.30;;
57335;SDS011;43171;50.994;18.204;2024-01-07T06:53:10;14.90;;;9.70;;
57335;SDS011;43171;50.994;18.204;2024-01-07T07:02:53;13.10;;;10.10;;
57335;SDS011;43171;50.994;18.204;2024-01-07T07:12:36;17.90;;;9.80;;
57335;SDS011;43171;50.994;18.204;2024-01-07T07:19:53;17.80;;;13.60;;
57335;SDS011;43171;50.994;18.204;2024-01-07T07:29:36;17.80;;;9.80;;
57335;SDS011;43171;50.994;18.204;2024-01-07T07:39:19;21.20;;;9.10;;
57335;SDS011;43171;50.994;18.204;2024-01-07T07:49:02;14.00;;;10.60;;
57335;SDS011;43171;50.994;18.204;2024-01-07T07:58:45;16.00;;;10.10;;
57335;SDS011;43171;50.994;18.204;2024-01-07T08:08:27;17.70;;;11.50;;
57335;SDS011;43171;50.994;18.204;2024-01-07T08:18:10;15.30;;;10.60;;
57335;SDS011;43171;50.994;18.204;2024-01-07T08:20:36;18.80;;;13.70;;
57335;SDS011;43171;50.994;18.204;2024-01-07T08:30:17;15.70;;;9.80;;
57335;SDS011;43171;50.994;18.204;2024-01-07T08:40:00;16.90;;;11.60;;
57335;SDS011;43171;50.994;18.204;2024-01-07T08:49:42;16.70;;;11.60;;
57335;SDS011;43171;50.994;18.204;2024-01-07T08:59:25;18.10;;;9.60;;
57335;SDS011;43171;50.994;18.204;2024-01-07T09:09:09;14.80;;;10.70;;
57335;SDS011;43171;50.994;18.204;2024-01-07T09:18:52;15.10;;;9.80;;
57335;SDS011;43171;50.994;18.204;2024-01-07T09:28:35;17.40;;;13.00;;
57335;SDS011;43171;50.994;18.204;2024-01-07T09:38:17;15.80;;;11.00;;
57335;SDS011;43171;50.994;18.204;2024-01-07T09:48:01;15.70;;;12.40;;
57335;SDS011;43171;50.994;18.204;2024-01-07T09:57:55;5.70;;;4.80;;
57335;SDS011;43171;50.994;18.204;2024-01-07T10:07:37;16.40;;;12.20;;
57335;SDS011;43171;50.994;18.204;2024-01-07T10:17:33;14.90;;;10.50;;
57335;SDS011;43171;50.994;18.204;2024-01-07T10:27:16;17.60;;;11.70;;
57335;SDS011;43171;50.994;18.204;2024-01-07T10:37:00;17.00;;;12.50;;
57335;SDS011;43171;50.994;18.204;2024-01-07T10:46:48;18.40;;;13.30;;
57335;SDS011;43171;50.994;18.204;2024-01-07T10:56:49;19.60;;;12.90;;
57335;SDS011;43171;50.994;18.204;2024-01-07T11:16:54;19.90;;;13.70;;
57335;SDS011;43171;50.994;18.204;2024-01-07T11:27:01;16.90;;;11.50;;
57335;SDS011;43171;50.994;18.204;2024-01-07T11:37:03;10.60;;;7.40;;
57335;SDS011;43171;50.994;18.204;2024-01-07T11:46:52;23.30;;;14.10;;
57335;SDS011;43171;50.994;18.204;2024-01-07T11:56:35;23.90;;;15.90;;
57335;SDS011;43171;50.994;18.204;2024-01-07T12:06:20;21.00;;;14.50;;
57335;SDS011;43171;50.994;18.204;2024-01-07T12:16:03;21.60;;;14.00;;
57335;SDS011;43171;50.994;18.204;2024-01-07T12:25:49;23.40;;;15.70;;
57335;SDS011;43171;50.994;18.204;2024-01-07T12:35:33;35.60;;;19.20;;
57335;SDS011;43171;50.994;18.204;2024-01-07T12:45:18;32.90;;;20.50;;
57335;SDS011;43171;50.994;18.204;2024-01-07T12:55:07;34.40;;;20.20;;
57335;SDS011;43171;50.994;18.204;2024-01-07T13:04:50;29.60;;;16.30;;
57335;SDS011;43171;50.994;18.204;2024-01-07T13:14:32;26.30;;;15.70;;
57335;SDS011;43171;50.994;18.204;2024-01-07T13:24:20;28.90;;;16.60;;
57335;SDS011;43171;50.994;18.204;2024-01-07T13:34:03;31.80;;;15.20;;
57335;SDS011;43171;50.994;18.204;2024-01-07T13:43:45;36.10;;;18.30;;
57335;SDS011;43171;50.994;18.204;2024-01-07T13:53:31;20.70;;;13.40;;
57335;SDS011;43171;50.994;18.204;2024-01-07T14:03:14;22.20;;;13.20;;
57335;SDS011;43171;50.994;18.204;2024-01-07T14:12:57;28.30;;;15.40;;
57335;SDS011;43171;50.994;18.204;2024-01-07T14:22:39;26.60;;;15.40;;
57335;SDS011;43171;50.994;18.204;2024-01-07T14:32:22;26.20;;;15.20;;
57335;SDS011;43171;50.994;18.204;2024-01-07T14:42:06;31.30;;;15.50;;
57335;SDS011;43171;50.994;18.204;2024-01-07T14:51:48;25.90;;;16.10;;
57335;SDS011;43171;50.994;18.204;2024-01-07T15:01:30;34.50;;;16.50;;
57335;SDS011;43171;50.994;18.204;2024-01-07T15:11:16;29.50;;;16.00;;
57335;SDS011;43171;50.994;18.204;2024-01-07T15:21:00;21.50;;;15.00;;
57335;SDS011;43171;50.994;18.204;2024-01-07T15:30:43;26.90;;;15.80;;
57335;SDS011;43171;50.994;18.204;2024-01-07T15:40:25;27.00;;;17.00;;
57335;SDS011;43171;50.994;18.204;2024-01-07T15:50:09;23.50;;;11.20;;
57335;SDS011;43171;50.994;18.204;2024-01-07T15:59:56;32.60;;;17.30;;
57335;SDS011;43171;50.994;18.204;2024-01-07T16:09:41;22.90;;;15.40;;
57335;SDS011;43171;50.994;18.204;2024-01-07T16:19:26;22.00;;;13.10;;
57335;SDS011;43171;50.994;18.204;2024-01-07T16:29:10;25.40;;;14.00;;
57335;SDS011;43171;50.994;18.204;2024-01-07T16:38:52;28.70;;;16.60;;
57335;SDS011;43171;50.994;18.204;2024-01-07T16:48:36;31.10;;;16.70;;
57335;SDS011;43171;50.994;18.204;2024-01-07T16:58:18;27.20;;;14.20;;
57335;SDS011;43171;50.994;18.204;2024-01-07T17:08:01;24.10;;;17.10;;
57335;SDS011;43171;50.994;18.204;2024-01-07T17:17:44;28.20;;;15.70;;
57335;SDS011;43171;50.994;18.204;2024-01-07T17:27:29;26.70;;;16.30;;
57335;SDS011;43171;50.994;18.204;2024-01-07T17:37:17;30.90;;;14.60;;
57335;SDS011;43171;50.994;18.204;2024-01-07T17:47:03;25.70;;;16.20;;
57335;SDS011;43171;50.994;18.204;2024-01-07T17:56:44;29.60;;;16.60;;
57335;SDS011;43171;50.994;18.204;2024-01-07T18:06:26;24.50;;;16.80;;
57335;SDS011;43171;50.994;18.204;2024-01-07T18:16:10;24.50;;;15.00;;
57335;SDS011;43171;50.994;18.204;2024-01-07T18:25:54;33.70;;;19.10;;
57335;SDS011;43171;50.994;18.204;2024-01-07T18:35:38;36.90;;;18.70;;
57335;SDS011;43171;50.994;18.204;2024-01-07T18:52:41;35.20;;;22.30;;
57335;SDS011;43171;50.994;18.204;2024-01-07T19:02:26;42.30;;;19.20;;
57335;SDS011;43171;50.994;18.204;2024-01-07T19:12:09;33.30;;;17.80;;
57335;SDS011;43171;50.994;18.204;2024-01-07T19:21:55;33.20;;;16.90;;
57335;SDS011;43171;50.994;18.204;2024-01-07T19:31:39;34.70;;;20.80;;
57335;SDS011;43171;50.994;18.204;2024-01-07T19:41:31;27.20;;;15.60;;
57335;SDS011;43171;50.994;18.204;2024-01-07T19:51:20;30.20;;;17.20;;
57335;SDS011;43171;50.994;18.204;2024-01-07T20:01:04;28.10;;;19.40;;
57335;SDS011;43171;50.994;18.204;2024-01-07T20:10:48;34.80;;;20.10;;
57335;SDS011;43171;50.994;18.204;2024-01-07T20:20:33;29.30;;;18.20;;
57335;SDS011;43171;50.994;18.204;2024-01-07T20:30:17;35.20;;;22.10;;
57335;SDS011;43171;50.994;18.204;2024-01-07T20:40:05;33.80;;;21.70;;
57335;SDS011;43171;50.994;18.204;2024-01-07T20:49:50;26.00;;;14.00;;
57335;SDS011;43171;50.994;18.204;2024-01-07T20:59:38;26.50;;;17.20;;
57335;SDS011;43171;50.994;18.204;2024-01-07T21:09:21;30.00;;;16.50;;
57335;SDS011;43171;50.994;18.204;2024-01-07T21:19:03;34.20;;;16.00;;
57335;SDS011;43171;50.994;18.204;2024-01-07T21:28:45;33.70;;;18.70;;
57335;SDS011;43171;50.994;18.204;2024-01-07T21:38:29;24.50;;;16.50;;
57335;SDS011;43171;50.994;18.204;2024-01-07T21:48:13;21.10;;;12.40;;
57335;SDS011;43171;50.994;18.204;2024-01-07T21:57:55;29.10;;;18.40;;
57335;SDS011;43171;50.994;18.204;2024-01-07T22:07:38;27.10;;;16.90;;
57335;SDS011;43171;50.994;18.204;2024-01-07T22:17:21;25.90;;;15.50;;
57335;SDS011;43171;50.994;18.204;2024-01-07T22:27:03;33.70;;;17.00;;
57335;SDS011;43171;50.994;18.204;2024-01-07T22:36:46;34.70;;;16.60;;
57335;SDS011;43171;50.994;18.204;2024-01-07T22:53:56;28.40;;;19.70;;
57335;SDS011;43171;50.994;18.204;2024-01-07T23:03:49;27.50;;;15.90;;
57335;SDS011;43171;50.994;18.204;2024-01-07T23:13:32;29.90;;;18.60;;
57335;SDS011;43171;50.994;18.204;2024-01-07T23:23:14;34.60;;;19.20;;
57335;SDS011;43171;50.994;18.204;2024-01-07T23:32:56;22.00;;;12.90;;
57335;SDS011;43171;50.994;18.204;2024-01-07T23:42:39;33.30;;;18.30;;
57335;SDS011;43171;50.994;18.204;2024-01-07T23:52:21;27.30;;;14.80;;
